Time;durP1;ratioP1;P1;durP2;ratioP2;P2;SDS_P1;SDS_P2;PMS_P1;PMS_P2;Temp;Humidity;BMP_temperature;BMP_pressure;BME280_temperature;BME280_humidity;BME280_pressure;Samples;Min_cycle;Max_cycle;Signal;HPM_P1;HPM_P2
2023/10/05 00:01:30;;;;;;;7.30;0.47;;;;;;;28.81;42.28;100331.81;7394386;19;20019;-58
2023/10/05 00:03:56;;;;;;;7.20;1.10;;;;;;;28.37;42.85;100317.38;7395213;19;20014;-58
2023/10/05 00:06:25;;;;;;;6.13;0.80;;;;;;;29.33;41.84;100306.66;7393809;19;20014;-58
2023/10/05 00:08:53;;;;;;;0.10;0.08;;;;;;;29.73;40.93;100301.25;7393114;19;20070;-58
2023/10/05 00:11:36;;;;;;;0.35;0.35;;;;;;;28.99;41.92;100309.59;7390935;19;20006;-58
2023/10/05 00:14:06;;;;;;;0.10;0.00;;;;;;;30.12;40.42;100312.84;7394741;19;20015;-58
2023/10/05 00:16:38;;;;;;;0.10;0.00;;;;;;;30.19;40.27;100309.81;7392781;19;20373;-58
2023/10/05 00:19:10;;;;;;;0.40;0.32;;;;;;;29.26;41.25;100304.63;7392639;19;20015;-58
2023/10/05 00:21:51;;;;;;;0.20;0.20;;;;;;;29.40;41.43;100302.91;7395880;19;20017;-58
2023/10/05 00:24:37;;;;;;;3.22;0.50;;;;;;;28.89;42.48;100292.31;7403149;19;20024;-58
2023/10/05 00:27:09;;;;;;;0.30;0.30;;;;;;;29.46;41.66;100289.03;7401091;19;20077;-58
2023/10/05 00:29:42;;;;;;;0.10;0.10;;;;;;;30.71;39.80;100287.16;7400009;19;20023;-58
2023/10/05 00:32:17;;;;;;;0.32;0.15;;;;;;;30.41;39.86;100293.53;7399171;19;20006;-58
2023/10/05 00:34:44;;;;;;;0.60;0.30;;;;;;;30.31;39.83;100295.66;7402330;19;20022;-58
2023/10/05 00:37:11;;;;;;;0.57;0.40;;;;;;;30.73;39.58;100300.97;7399084;19;20066;-58
2023/10/05 00:39:39;;;;;;;1.13;0.25;;;;;;;30.89;39.24;100302.16;7399153;19;20102;-58
2023/10/05 00:42:11;;;;;;;0.10;0.00;;;;;;;32.00;38.12;100299.38;7397713;19;20027;-58
2023/10/05 00:44:40;;;;;;;0.32;0.10;;;;;;;32.49;37.36;100300.56;7401923;19;20007;-58
2023/10/05 00:47:06;;;;;;;0.47;0.20;;;;;;;32.87;36.92;100300.22;7399113;19;20007;-58
2023/10/05 00:52:15;;;;;;;0.10;0.10;;;;;;;30.50;39.34;100304.28;7399097;19;20017;-58
2023/10/05 00:54:50;;;;;;;1.55;0.45;;;;;;;29.87;40.13;100305.22;7401103;19;20031;-58
2023/10/05 00:57:22;;;;;;;6.75;0.30;;;;;;;29.97;40.42;100308.13;7400072;19;20010;-58
2023/10/05 01:02:35;;;;;;;0.25;0.25;;;;;;;31.34;38.59;100310.53;7398798;19;20720;-58
2023/10/05 01:05:14;;;;;;;0.20;0.20;;;;;;;31.68;38.29;100305.75;7402741;19;20364;-58
2023/10/05 01:07:49;;;;;;;7.20;0.68;;;;;;;31.85;37.88;100306.25;7399907;19;20022;-58
2023/10/05 01:12:50;;;;;;;0.15;0.10;;;;;;;32.80;36.60;100301.97;7400220;19;20007;-58
2023/10/05 01:15:32;;;;;;;0.22;0.10;;;;;;;32.70;37.00;100297.66;7398832;19;20014;-58
2023/10/05 01:17:59;;;;;;;0.20;0.20;;;;;;;32.89;36.42;100298.22;7398242;19;20496;-58
2023/10/05 01:20:28;;;;;;;0.32;0.32;;;;;;;32.39;36.52;100300.63;7397216;19;20011;-58
2023/10/05 01:22:58;;;;;;;1.20;0.17;;;;;;;29.52;40.56;100306.00;7398459;19;20018;-58
2023/10/05 01:25:27;;;;;;;0.10;0.10;;;;;;;29.45;40.39;100299.00;7398170;19;20025;-58
2023/10/05 01:27:54;;;;;;;0.10;0.00;;;;;;;28.71;41.89;100304.41;7397096;19;20014;-59
2023/10/05 01:30:21;;;;;;;0.88;0.32;;;;;;;29.58;41.04;100294.97;7397669;19;20030;-58
2023/10/05 01:32:49;;;;;;;0.40;0.22;;;;;;;30.74;39.51;100297.47;7397269;19;20007;-58
2023/10/05 01:35:20;;;;;;;0.55;0.45;;;;;;;30.61;39.88;100301.56;7397226;19;20030;-58
2023/10/05 01:37:51;;;;;;;0.52;0.35;;;;;;;31.33;38.66;100294.66;7398164;19;20010;-59
2023/10/05 01:42:47;;;;;;;0.30;0.30;;;;;;;30.01;40.08;100299.06;7397392;19;19918;-59
2023/10/05 01:45:22;;;;;;;0.63;0.20;;;;;;;30.19;39.99;100294.72;7397881;19;20471;-58
2023/10/05 01:47:49;;;;;;;0.10;0.10;;;;;;;30.04;40.61;100289.25;7397719;19;20399;-58
2023/10/05 01:50:19;;;;;;;1.30;0.47;;;;;;;30.81;39.78;100273.53;7396582;19;20030;-58
2023/10/05 01:52:51;;;;;;;0.10;0.00;;;;;;;31.46;39.02;100279.00;7398889;19;20018;-58
2023/10/05 01:55:18;;;;;;;2.60;0.30;;;;;;;31.32;38.60;100275.84;7395718;19;20015;-58
2023/10/05 01:57:44;;;;;;;0.20;0.20;;;;;;;30.73;39.27;100285.19;7395938;19;20007;-58
2023/10/05 02:00:14;;;;;;;0.10;0.00;;;;;;;27.00;44.44;100285.44;7397408;19;20034;-58
2023/10/05 02:02:43;;;;;;;0.55;0.47;;;;;;;29.07;41.91;100281.56;7396335;19;20007;-59
2023/10/05 02:05:10;;;;;;;0.10;0.03;;;;;;;28.04;43.32;100287.38;7399652;19;20011;-58
2023/10/05 02:07:38;;;;;;;0.10;0.10;;;;;;;27.86;43.88;100282.16;7397108;19;20087;-58
2023/10/05 02:10:09;;;;;;;0.88;0.40;;;;;;;28.11;43.88;100292.25;7396937;19;20030;-58
2023/10/05 02:12:36;;;;;;;2.47;0.70;;;;;;;26.74;46.01;100296.63;7397861;19;20014;-58
2023/10/05 02:15:16;;;;;;;0.10;0.10;;;;;;;27.98;44.86;100289.69;7395532;19;20011;-58
2023/10/05 02:17:50;;;;;;;0.20;0.17;;;;;;;30.96;40.92;100273.25;7399381;19;20022;-59
2023/10/05 02:23:15;;;;;;;0.82;0.60;;;;;;;30.88;40.43;100287.03;7396852;19;20017;-59
2023/10/05 02:25:42;;;;;;;1.38;0.88;;;;;;;31.28;39.81;100287.06;7396133;19;20070;-58
2023/10/05 02:28:08;;;;;;;0.47;0.47;;;;;;;31.41;39.30;100286.59;7396128;19;20006;-58
2023/10/05 02:30:36;;;;;;;1.27;0.63;;;;;;;30.99;39.78;100283.50;7396034;19;20018;-58
2023/10/05 02:33:09;;;;;;;0.40;0.40;;;;;;;30.51;40.35;100280.69;7397237;19;20010;-58
2023/10/05 02:35:38;;;;;;;0.73;0.20;;;;;;;29.88;41.18;100283.78;7396736;19;20094;-58
2023/10/05 02:38:06;;;;;;;2.10;0.35;;;;;;;29.80;41.43;100283.13;7393870;19;20392;-58
2023/10/05 02:40:39;;;;;;;1.45;0.10;;;;;;;29.41;41.80;100287.19;7399113;19;20019;-58
2023/10/05 02:43:09;;;;;;;0.57;0.20;;;;;;;29.33;42.01;100286.56;7394544;19;20349;-58
2023/10/05 02:45:38;;;;;;;1.98;0.45;;;;;;;29.99;41.46;100283.16;7392914;19;20014;-56
2023/10/05 02:48:10;;;;;;;1.75;0.57;;;;;;;30.04;41.84;100275.63;7394149;19;20014;-55
2023/10/05 02:50:38;;;;;;;0.20;0.20;;;;;;;29.65;42.23;100274.75;7391703;19;20014;-56
2023/10/05 02:53:06;;;;;;;0.10;0.10;;;;;;;29.73;42.19;100272.53;7395552;19;20011;-56
2023/10/05 02:55:36;;;;;;;0.45;0.40;;;;;;;30.63;41.14;100263.56;7392856;19;20018;-57
2023/10/05 02:58:04;;;;;;;0.10;0.00;;;;;;;29.64;41.88;100264.63;7395210;19;20019;-57
2023/10/05 03:00:34;;;;;;;0.20;0.20;;;;;;;29.63;42.01;100274.59;7392713;19;20471;-57
2023/10/05 03:03:05;;;;;;;0.15;0.10;;;;;;;29.28;42.62;100273.25;7396485;19;20017;-57
2023/10/05 03:05:35;;;;;;;1.45;1.10;;;;;;;29.55;42.28;100273.97;7394174;19;20021;-57
2023/10/05 03:08:04;;;;;;;0.10;0.10;;;;;;;29.22;43.04;100276.38;7389720;19;20018;-57
2023/10/05 03:10:30;;;;;;;1.55;0.57;;;;;;;29.40;42.71;100267.72;7391417;19;20017;-57
2023/10/05 03:12:56;;;;;;;0.25;0.25;;;;;;;28.86;43.33;100273.44;7398194;19;20010;-57
2023/10/05 03:15:27;;;;;;;0.77;0.10;;;;;;;28.64;44.08;100262.25;7397911;19;20020;-57
2023/10/05 03:17:56;;;;;;;;;;;;;;;28.57;44.34;100269.59;7393067;19;20625;-57
2023/10/05 03:20:29;;;;;;;0.28;0.10;;;;;;;28.81;44.11;100273.69;7392965;19;19925;-57
2023/10/05 03:22:55;;;;;;;0.20;0.20;;;;;;;29.40;43.30;100268.47;7394876;19;20021;-58
2023/10/05 03:25:22;;;;;;;0.40;0.28;;;;;;;29.35;43.22;100272.38;7392119;19;20015;-57
2023/10/05 03:27:48;;;;;;;1.40;0.55;;;;;;;29.89;42.66;100268.03;7393887;19;20010;-57
2023/10/05 03:30:16;;;;;;;0.15;0.10;;;;;;;29.63;43.11;100263.09;7392951;19;20074;-57
2023/10/05 03:32:48;;;;;;;2.45;0.50;;;;;;;31.13;41.18;100266.53;7394928;19;20336;-57
2023/10/05 03:35:14;;;;;;;5.57;0.40;;;;;;;30.74;41.50;100268.69;7392812;19;20011;-57
2023/10/05 03:37:41;;;;;;;0.30;0.10;;;;;;;29.78;42.46;100274.38;7393074;19;20070;-57
2023/10/05 03:40:22;;;;;;;0.43;0.30;;;;;;;29.63;43.15;100271.72;7392982;19;20123;-57
2023/10/05 03:42:56;;;;;;;0.17;0.17;;;;;;;29.86;42.57;100275.00;7394064;19;20010;-57
2023/10/05 03:45:23;;;;;;;0.10;0.10;;;;;;;29.20;43.83;100278.34;7392410;19;20015;-57
2023/10/05 03:47:49;;;;;;;0.47;0.13;;;;;;;29.59;43.52;100268.53;7394683;19;20014;-57
2023/10/05 03:50:19;;;;;;;1.33;0.75;;;;;;;29.30;44.24;100273.41;7396154;19;20022;-57
2023/10/05 03:52:48;;;;;;;0.20;0.20;;;;;;;30.65;42.09;100258.72;7393863;19;20508;-57
2023/10/05 03:55:19;;;;;;;2.65;0.52;;;;;;;29.15;44.19;100270.75;7394170;19;20011;-57
2023/10/05 03:57:48;;;;;;;0.35;0.28;;;;;;;28.51;44.96;100275.56;7393737;19;20017;-57
2023/10/05 04:00:31;;;;;;;0.10;0.10;;;;;;;27.61;47.17;100267.88;7392985;19;20082;-57
2023/10/05 04:02:57;;;;;;;0.50;0.03;;;;;;;28.24;46.25;100271.13;7393503;19;20031;-57
2023/10/05 04:05:24;;;;;;;0.10;0.00;;;;;;;28.77;45.63;100271.25;7393700;19;20038;-57
2023/10/05 04:07:52;;;;;;;0.20;0.10;;;;;;;28.73;45.56;100281.66;7393269;19;20481;-57
2023/10/05 04:10:23;;;;;;;0.10;0.00;;;;;;;28.04;46.95;100284.50;7392195;19;20014;-57
2023/10/05 04:12:51;;;;;;;;;;;;;;;28.33;46.76;100285.53;7393508;19;20007;-57
2023/10/05 04:15:20;;;;;;;0.32;0.20;;;;;;;27.98;47.32;100286.84;7391161;19;19915;-57
2023/10/05 04:17:49;;;;;;;1.05;0.10;;;;;;;27.28;49.15;100287.19;7393319;19;20042;-57
2023/10/05 04:20:28;;;;;;;0.10;0.00;;;;;;;28.11;48.52;100280.78;7393085;19;20014;-57
2023/10/05 04:22:55;;;;;;;0.10;0.10;;;;;;;27.74;48.51;100293.34;7392281;19;20346;-57
2023/10/05 04:25:21;;;;;;;0.52;0.10;;;;;;;27.67;49.18;100289.19;7394850;19;20010;-57
2023/10/05 04:27:48;;;;;;;0.65;0.40;;;;;;;27.65;49.46;100288.25;7392890;19;20048;-58
2023/10/05 04:30:21;;;;;;;0.65;0.65;;;;;;;28.24;48.60;100289.06;7392724;19;20095;-57
2023/10/05 04:32:48;;;;;;;0.80;0.50;;;;;;;28.56;47.64;100287.38;7392145;19;20349;-57
2023/10/05 04:35:28;;;;;;;0.73;0.50;;;;;;;29.36;46.02;100291.13;7390903;19;20023;-57
2023/10/05 04:37:56;;;;;;;0.20;0.10;;;;;;;28.64;47.31;100296.66;7394616;19;20026;-57
2023/10/05 04:40:26;;;;;;;14.15;0.88;;;;;;;29.55;46.29;100302.66;7392736;19;20011;-57
2023/10/05 04:42:54;;;;;;;0.55;0.55;;;;;;;30.02;44.95;100300.59;7393108;19;20010;-57
2023/10/05 04:45:23;;;;;;;0.30;0.30;;;;;;;30.39;44.48;100299.13;7392588;19;20034;-57
2023/10/05 04:47:49;;;;;;;0.22;0.22;;;;;;;30.63;44.18;100306.69;7392331;19;20010;-57
2023/10/05 04:50:17;;;;;;;0.75;0.45;;;;;;;30.91;43.34;100294.44;7393838;19;20018;-57
2023/10/05 04:52:45;;;;;;;2.28;0.47;;;;;;;29.89;44.59;100299.63;7392831;19;20087;-57
2023/10/05 04:55:17;;;;;;;0.93;0.40;;;;;;;28.53;47.11;100307.28;7393265;19;20034;-57
2023/10/05 04:58:15;;;;;;;0.20;0.20;;;;;;;29.03;46.70;100304.94;7393097;19;20518;-56
2023/10/05 05:06:34;;;;;;;1.50;0.38;;;;;;;29.67;45.51;100297.88;7391319;19;20011;-56
2023/10/05 05:08:41;;;;;;;0.73;0.38;;;;;;;30.15;45.06;100300.16;7398379;19;20026;-57
2023/10/05 05:11:18;;;;;;;0.15;0.13;;;;;;;30.27;44.83;100301.06;7397236;19;20547;-56
2023/10/05 05:13:51;;;;;;;0.70;0.22;;;;;;;30.54;44.50;100304.56;7403405;19;20576;-57
2023/10/05 05:16:17;;;;;;;0.55;0.47;;;;;;;31.28;43.21;100303.59;7399171;19;20011;-57
2023/10/05 05:18:43;;;;;;;0.10;0.10;;;;;;;30.31;44.19;100310.03;7399381;19;20490;-57
2023/10/05 05:21:11;;;;;;;0.63;0.22;;;;;;;29.83;45.10;100310.66;7398752;19;20420;-56
2023/10/05 05:23:39;;;;;;;0.43;0.10;;;;;;;31.19;43.29;100305.13;7398100;19;20014;-56
2023/10/05 05:26:09;;;;;;;0.38;0.38;;;;;;;31.61;42.35;100303.78;7400946;19;20011;-57
2023/10/05 05:28:37;;;;;;;0.10;0.00;;;;;;;31.63;42.57;100309.69;7399070;19;20010;-57
2023/10/05 05:31:16;;;;;;;0.20;0.20;;;;;;;30.88;43.35;100304.31;7399284;19;20433;-57
2023/10/05 05:33:44;;;;;;;0.80;0.20;;;;;;;31.62;42.52;100313.97;7399339;19;20021;-57
2023/10/05 05:36:12;;;;;;;3.60;0.98;;;;;;;32.53;40.85;100307.34;7398061;19;20017;-56
2023/10/05 05:38:39;;;;;;;0.20;0.20;;;;;;;34.26;39.03;100306.88;7401511;19;20014;-57
2023/10/05 05:41:11;;;;;;;4.25;0.30;;;;;;;35.57;37.20;100311.59;7397731;19;20016;-56
2023/10/05 05:43:39;;;;;;;0.20;0.20;;;;;;;36.75;35.64;100307.66;7395869;19;20011;-56
2023/10/05 05:46:11;;;;;;;0.93;0.35;;;;;;;37.64;34.20;100314.88;7397605;19;20074;-57
2023/10/05 05:48:39;;;;;;;0.17;0.17;;;;;;;37.49;34.23;100312.72;7397373;19;20043;-56
2023/10/05 05:51:10;;;;;;;0.22;0.22;;;;;;;36.28;34.95;100315.34;7399211;19;20017;-57
2023/10/05 05:53:37;;;;;;;;;;;;;;;35.49;35.81;100311.16;7397648;19;20014;-56
2023/10/05 05:56:04;;;;;;;2.65;0.43;;;;;;;35.58;35.89;100315.25;7398106;19;20348;-56
2023/10/05 05:58:30;;;;;;;0.30;0.13;;;;;;;35.55;35.52;100325.97;7398828;19;20467;-56
2023/10/05 06:00:57;;;;;;;0.22;0.22;;;;;;;35.92;35.05;100322.13;7396974;19;20019;-56
2023/10/05 06:03:25;;;;;;;0.10;0.00;;;;;;;36.10;34.68;100321.00;7399002;19;20042;-56
2023/10/05 06:05:51;;;;;;;1.70;0.60;;;;;;;35.77;35.08;100318.50;7397233;19;20014;-56
2023/10/05 06:08:17;;;;;;;0.10;0.10;;;;;;;35.82;34.85;100321.59;7397036;19;20018;-56
2023/10/05 06:10:46;;;;;;;0.85;0.28;;;;;;;35.59;35.12;100331.97;7395009;19;20039;-56
2023/10/05 06:13:13;;;;;;;0.50;0.40;;;;;;;35.55;35.26;100337.56;7402017;19;20027;-56
2023/10/05 06:15:39;;;;;;;1.45;1.08;;;;;;;35.36;35.65;100332.13;7398212;19;20084;-56
2023/10/05 06:18:07;;;;;;;0.10;0.10;;;;;;;35.51;35.23;100325.75;7397590;19;20010;-56
2023/10/05 06:20:33;;;;;;;0.38;0.38;;;;;;;35.15;35.54;100329.47;7396315;19;20032;-56
2023/10/05 06:23:00;;;;;;;0.60;0.32;;;;;;;35.79;35.19;100326.53;7398607;19;20400;-56
2023/10/05 06:25:26;;;;;;;0.10;0.10;;;;;;;34.89;35.63;100325.81;7397272;19;20010;-57
2023/10/05 06:27:52;;;;;;;0.32;0.32;;;;;;;34.61;36.45;100329.22;7396861;19;20079;-57
2023/10/05 06:30:20;;;;;;;2.08;0.47;;;;;;;34.30;36.48;100323.75;7396184;19;20025;-57
2023/10/05 06:32:47;;;;;;;0.17;0.17;;;;;;;34.44;36.65;100338.31;7396670;19;20073;-57
2023/10/05 06:35:13;;;;;;;4.28;0.55;;;;;;;34.79;35.97;100333.91;7399856;19;20443;-57
2023/10/05 06:37:40;;;;;;;1.55;0.40;;;;;;;34.93;35.97;100336.88;7394514;19;20420;-57
2023/10/05 06:40:12;;;;;;;0.43;0.30;;;;;;;34.63;36.21;100332.22;7396037;19;20006;-56
2023/10/05 06:42:43;;;;;;;0.75;0.30;;;;;;;34.67;36.32;100339.00;7394968;19;20010;-56
2023/10/05 06:45:13;;;;;;;1.00;0.30;;;;;;;34.07;36.80;100336.09;7395593;19;20022;-57
2023/10/05 06:47:40;;;;;;;0.68;0.25;;;;;;;33.64;37.68;100346.38;7400425;19;20463;-56
2023/10/05 06:50:10;;;;;;;0.28;0.17;;;;;;;33.70;37.35;100343.13;7395679;19;20392;-56
2023/10/05 06:52:43;;;;;;;0.28;0.10;;;;;;;33.82;37.68;100347.53;7395361;19;20007;-57
2023/10/05 06:55:12;;;;;;;1.17;0.20;;;;;;;34.32;37.08;100341.97;7394760;19;20010;-57
2023/10/05 06:57:39;;;;;;;0.10;0.10;;;;;;;34.54;37.04;100347.59;7394890;19;20010;-57
2023/10/05 07:00:16;;;;;;;2.40;0.50;;;;;;;35.00;36.17;100347.44;7395339;19;20018;-57
2023/10/05 07:02:46;;;;;;;4.65;0.57;;;;;;;35.76;35.50;100351.00;7395645;19;20014;-57
2023/10/05 07:05:13;;;;;;;0.10;0.10;;;;;;;35.89;35.32;100349.53;7395605;19;20324;-57
2023/10/05 07:07:44;;;;;;;0.55;0.32;;;;;;;35.78;35.44;100359.81;7394820;19;20361;-58
2023/10/05 07:10:13;;;;;;;;;;;;;;;36.01;35.67;100358.91;7396151;19;20011;-58
2023/10/05 07:12:47;;;;;;;0.10;0.10;;;;;;;36.08;35.26;100357.81;7392895;19;20253;-58
2023/10/05 07:15:14;;;;;;;0.25;0.22;;;;;;;36.51;34.83;100364.47;7392479;19;20038;-57
2023/10/05 07:17:41;;;;;;;0.30;0.20;;;;;;;37.01;34.28;100367.06;7393324;19;20014;-58
2023/10/05 07:20:13;;;;;;;0.80;0.20;;;;;;;37.32;33.70;100368.53;7392902;19;20021;-57
2023/10/05 07:22:44;;;;;;;0.75;0.10;;;;;;;37.28;33.88;100374.13;7394774;19;20017;-58
2023/10/05 07:25:12;;;;;;;7.57;0.32;;;;;;;37.39;33.57;100379.81;7394029;19;20010;-57
2023/10/05 07:27:39;;;;;;;0.05;0.00;;;;;;;37.56;33.98;100366.78;7395696;19;20014;-58
2023/10/05 07:30:08;;;;;;;0.10;0.10;;;;;;;37.91;33.43;100369.94;7391370;19;20368;-58
2023/10/05 07:32:34;;;;;;;0.20;0.10;;;;;;;38.24;33.03;100372.91;7394209;19;20088;-58
2023/10/05 07:35:01;;;;;;;0.82;0.30;;;;;;;38.60;32.55;100371.59;7398781;19;20019;-58
2023/10/05 07:37:27;;;;;;;0.30;0.30;;;;;;;38.83;32.44;100372.56;7398618;19;20322;-58
2023/10/05 07:39:55;;;;;;;0.85;0.40;;;;;;;39.21;31.82;100372.00;7394818;19;20026;-57
2023/10/05 07:42:22;;;;;;;0.28;0.28;;;;;;;39.57;31.74;100366.88;7393659;19;20107;-57
2023/10/05 07:44:48;;;;;;;0.85;0.40;;;;;;;39.99;30.96;100371.47;7396876;19;20015;-57
2023/10/05 07:47:15;;;;;;;0.32;0.17;;;;;;;39.85;31.17;100373.81;7396195;19;20037;-57
2023/10/05 07:49:41;;;;;;;1.58;0.77;;;;;;;39.96;30.62;100378.59;7398014;19;20332;-58
2023/10/05 07:52:10;;;;;;;0.68;0.30;;;;;;;39.95;30.91;100382.19;7395567;19;20031;-57
2023/10/05 07:54:38;;;;;;;1.48;0.47;;;;;;;40.17;30.79;100385.22;7397398;19;20019;-57
2023/10/05 07:57:07;;;;;;;0.77;0.77;;;;;;;40.09;30.74;100383.50;7397592;19;20359;-58
2023/10/05 07:59:33;;;;;;;0.73;0.38;;;;;;;40.19;30.90;100388.22;7397505;19;20017;-57
2023/10/05 08:02:01;;;;;;;1.35;0.55;;;;;;;40.09;30.58;100392.25;7397390;19;20011;-58
2023/10/05 08:04:28;;;;;;;0.25;0.25;;;;;;;40.29;30.81;100391.50;7397292;19;20475;-57
2023/10/05 08:06:54;;;;;;;0.90;0.50;;;;;;;40.41;30.38;100397.81;7397818;19;20007;-57
2023/10/05 08:09:21;;;;;;;3.63;0.60;;;;;;;40.45;30.41;100392.88;7396850;19;20429;-57
2023/10/05 08:11:50;;;;;;;0.75;0.47;;;;;;;40.53;29.94;100395.31;7396012;19;20042;-57
2023/10/05 08:14:17;;;;;;;0.63;0.28;;;;;;;40.44;30.60;100402.28;7397698;19;20495;-57
2023/10/05 08:16:47;;;;;;;0.30;0.13;;;;;;;40.66;30.05;100406.00;7394174;19;20482;-58
2023/10/05 08:19:15;;;;;;;0.13;0.13;;;;;;;41.34;29.53;100402.53;7395317;19;20014;-57
2023/10/05 08:21:42;;;;;;;0.22;0.10;;;;;;;41.62;29.13;100390.94;7396673;19;20018;-57
2023/10/05 08:24:08;;;;;;;0.10;0.00;;;;;;;41.85;28.73;100395.31;7393874;19;20571;-58
2023/10/05 08:26:35;;;;;;;1.25;0.63;;;;;;;41.56;28.99;100391.50;7394822;19;20015;-57
2023/10/05 08:29:01;;;;;;;0.10;0.10;;;;;;;41.46;29.21;100387.50;7391463;19;20019;-57
2023/10/05 08:31:28;;;;;;;1.67;0.60;;;;;;;41.64;28.59;100384.41;7391134;19;20014;-57
2023/10/05 08:33:54;;;;;;;2.65;0.93;;;;;;;42.70;28.09;100390.47;7392262;19;20011;-57
2023/10/05 08:36:25;;;;;;;0.10;0.10;;;;;;;42.93;27.66;100386.69;7393051;19;20523;-57
2023/10/05 08:38:54;;;;;;;;;;;;;;;43.29;27.34;100386.09;7393458;19;20018;-57
2023/10/05 08:41:31;;;;;;;0.20;0.10;;;;;;;43.36;27.08;100399.47;7391197;19;19956;-57
2023/10/05 08:44:20;;;;;;;0.40;0.40;;;;;;;44.16;26.22;100386.59;7399226;19;20078;-57
2023/10/05 08:46:46;;;;;;;0.43;0.43;;;;;;;44.24;26.50;100386.00;7401236;19;20031;-57
2023/10/05 08:49:15;;;;;;;0.55;0.40;;;;;;;44.39;26.15;100385.59;7398350;19;20042;-56
2023/10/05 08:51:41;;;;;;;3.20;1.38;;;;;;;44.09;25.97;100387.19;7396888;19;20023;-57
2023/10/05 08:54:13;;;;;;;0.55;0.30;;;;;;;41.14;28.42;100398.91;7399442;19;20052;-57
2023/10/05 08:56:41;;;;;;;0.43;0.10;;;;;;;40.15;29.14;100408.50;7397528;19;20010;-57
2023/10/05 08:59:13;;;;;;;5.00;1.55;;;;;;;39.53;29.53;100413.38;7402177;19;20018;-57
2023/10/05 09:01:43;;;;;;;0.35;0.20;;;;;;;39.45;30.10;100401.38;7399260;19;20367;-57
2023/10/05 09:06:49;;;;;;;4.72;0.50;;;;;;;39.04;30.10;100401.88;7399292;19;20070;-57
2023/10/05 09:09:26;;;;;;;1.38;0.70;;;;;;;36.64;32.85;100400.69;7399077;19;20062;-57
2023/10/05 09:11:56;;;;;;;2.60;0.68;;;;;;;36.18;33.40;100407.66;7399243;19;20014;-57
2023/10/05 09:14:27;;;;;;;0.50;0.30;;;;;;;37.02;32.50;100405.56;7398857;19;20007;-57
2023/10/05 09:17:07;;;;;;;0.00;0.00;;;;;;;38.18;31.44;100400.97;7397046;19;20015;-57
2023/10/05 09:19:33;;;;;;;0.50;0.17;;;;;;;38.33;31.27;100406.81;7398337;19;20002;-57
2023/10/05 09:24:29;;;;;;;1.65;0.20;;;;;;;33.99;35.73;100407.84;7397433;19;20031;-58
2023/10/05 09:26:57;;;;;;;2.53;0.80;;;;;;;34.76;35.44;100409.69;7397769;19;20095;-58
2023/10/05 09:29:28;;;;;;;1.77;1.63;;;;;;;36.27;34.37;100403.81;7399021;19;20015;-58
2023/10/05 09:31:55;;;;;;;0.08;0.08;;;;;;;36.40;34.06;100403.81;7395631;19;20010;-58
2023/10/05 09:34:37;;;;;;;0.30;0.30;;;;;;;35.30;35.12;100406.34;7401512;19;20006;-58
2023/10/05 09:37:06;;;;;;;0.25;0.17;;;;;;;35.88;34.53;100408.91;7398443;19;20018;-58
2023/10/05 09:39:42;;;;;;;3.40;0.43;;;;;;;36.59;34.02;100399.72;7399696;19;20014;-58
2023/10/05 09:42:22;;;;;;;0.17;0.17;;;;;;;36.31;33.94;100393.16;7398249;19;20086;-57
2023/10/05 09:44:53;;;;;;;0.28;0.20;;;;;;;36.83;33.99;100398.06;7396883;19;20031;-58
2023/10/05 09:47:25;;;;;;;0.47;0.20;;;;;;;36.86;33.68;100399.66;7402297;19;20043;-57
2023/10/05 09:49:57;;;;;;;3.20;0.38;;;;;;;35.45;35.25;100409.41;7397848;19;20015;-58
2023/10/05 09:52:27;;;;;;;0.15;0.15;;;;;;;33.51;37.23;100419.22;7397458;19;20074;-57
2023/10/05 09:54:53;;;;;;;0.38;0.10;;;;;;;35.99;35.10;100419.69;7397022;19;20014;-58
2023/10/05 09:57:21;;;;;;;0.30;0.10;;;;;;;36.62;33.94;100418.75;7396622;19;20416;-58
2023/10/05 10:00:00;;;;;;;0.10;0.00;;;;;;;35.77;34.57;100419.94;7396052;19;20017;-58
2023/10/05 10:02:33;;;;;;;0.10;0.10;;;;;;;36.38;34.22;100409.50;7398354;19;20080;-57
2023/10/05 10:05:05;;;;;;;0.90;0.40;;;;;;;38.36;32.50;100419.25;7401960;19;20475;-58
2023/10/05 10:07:33;;;;;;;0.00;0.00;;;;;;;37.83;32.92;100428.50;7397435;19;20010;-58
2023/10/05 10:10:01;;;;;;;0.38;0.22;;;;;;;37.01;33.43;100428.06;7398355;19;20015;-58
2023/10/05 10:12:33;;;;;;;0.65;0.15;;;;;;;38.08;32.67;100436.16;7398371;19;20029;-57
2023/10/05 10:15:00;;;;;;;0.10;0.08;;;;;;;37.57;33.14;100435.94;7396778;19;20007;-58
2023/10/05 10:17:31;;;;;;;2.03;0.10;;;;;;;35.98;34.69;100442.13;7397310;19;20022;-58
2023/10/05 10:20:18;;;;;;;0.95;0.35;;;;;;;36.26;34.81;100437.09;7396593;19;20084;-58
2023/10/05 10:22:55;;;;;;;0.68;0.47;;;;;;;35.69;35.26;100439.78;7397247;19;20015;-57
2023/10/05 10:25:41;;;;;;;2.63;0.30;;;;;;;35.76;35.37;100432.16;7396010;19;20014;-57
2023/10/05 10:28:17;;;;;;;0.00;0.00;;;;;;;34.19;37.14;100435.16;7396874;19;20382;-57
2023/10/05 10:30:48;;;;;;;6.53;0.43;;;;;;;36.92;34.65;100426.16;7396092;19;20014;-57
2023/10/05 10:33:34;;;;;;;0.10;0.00;;;;;;;39.04;32.73;100428.09;7397585;19;20066;-57
2023/10/05 10:36:04;;;;;;;2.03;0.38;;;;;;;38.50;33.12;100417.75;7398002;19;20466;-57
2023/10/05 10:38:30;;;;;;;0.30;0.20;;;;;;;38.89;32.49;100417.28;7396123;19;20347;-57
2023/10/05 10:41:09;;;;;;;0.63;0.10;;;;;;;36.10;35.12;100413.03;7395411;19;20043;-57
2023/10/05 10:43:37;;;;;;;0.08;0.00;;;;;;;36.25;35.08;100418.22;7396650;19;20022;-56
2023/10/05 10:46:12;;;;;;;0.08;0.05;;;;;;;36.04;35.67;100421.41;7394755;19;20356;-57
2023/10/05 10:48:57;;;;;;;0.10;0.10;;;;;;;35.59;36.13;100418.94;7398130;19;20025;-56
2023/10/05 10:51:27;;;;;;;1.75;0.80;;;;;;;35.97;35.98;100405.09;7393567;19;20010;-57
2023/10/05 10:53:56;;;;;;;0.60;0.13;;;;;;;38.02;33.86;100412.63;7395987;19;20691;-57
2023/10/05 10:56:35;;;;;;;0.10;0.05;;;;;;;38.03;33.81;100416.28;7395494;19;20355;-57
2023/10/05 10:59:11;;;;;;;0.35;0.22;;;;;;;38.04;33.56;100409.81;7397016;19;20339;-57
2023/10/05 11:02:10;;;;;;;0.20;0.08;;;;;;;37.06;34.55;100412.31;7394050;19;20010;-57
2023/10/05 11:04:36;;;;;;;0.20;0.10;;;;;;;37.24;34.15;100407.41;7393863;19;20455;-56
2023/10/05 11:07:05;;;;;;;1.55;1.27;;;;;;;36.01;35.24;100411.09;7395710;19;20015;-56
2023/10/05 11:09:36;;;;;;;1.75;0.47;;;;;;;35.78;36.22;100411.97;7394956;19;20017;-56
2023/10/05 11:12:11;;;;;;;1.55;0.35;;;;;;;36.25;36.14;100403.69;7397415;19;20006;-57
2023/10/05 11:14:40;;;;;;;4.15;0.70;;;;;;;35.28;36.59;100409.13;7395126;19;20006;-57
2023/10/05 11:17:23;;;;;;;1.08;0.63;;;;;;;36.13;35.68;100417.53;7395374;19;20014;-56
2023/10/05 11:19:49;;;;;;;2.28;0.45;;;;;;;36.41;34.99;100408.19;7393463;19;20015;-56
2023/10/05 11:22:23;;;;;;;0.10;0.10;;;;;;;36.97;34.92;100406.78;7394703;19;20381;-57
2023/10/05 11:25:14;;;;;;;0.88;0.40;;;;;;;36.44;35.29;100406.19;7395580;19;20035;-56
2023/10/05 11:27:58;;;;;;;0.35;0.20;;;;;;;35.09;37.20;100401.53;7394837;19;20018;-57
2023/10/05 11:30:41;;;;;;;0.52;0.22;;;;;;;35.95;36.21;100402.84;7395995;19;20018;-56
2023/10/05 11:33:15;;;;;;;12.60;0.50;;;;;;;39.86;32.81;100395.75;7395359;19;20090;-56
2023/10/05 11:35:48;;;;;;;1.45;0.25;;;;;;;37.86;34.04;100403.13;7394949;19;20010;-56
2023/10/05 11:38:16;;;;;;;1.17;0.20;;;;;;;39.93;32.14;100387.97;7394269;19;20018;-56
2023/10/05 11:40:55;;;;;;;7.88;0.80;;;;;;;38.15;33.32;100382.66;7394433;19;20341;-56
2023/10/05 11:43:22;;;;;;;5.68;1.00;;;;;;;37.82;34.22;100368.81;7394198;19;20006;-56
2023/10/05 11:46:17;;;;;;;1.35;0.52;;;;;;;38.22;34.05;100355.34;7396853;19;20042;-56
2023/10/05 11:48:55;;;;;;;2.13;0.95;;;;;;;38.36;33.68;100338.53;7396501;19;20010;-56
2023/10/05 11:51:42;;;;;;;0.57;0.45;;;;;;;38.20;33.87;100313.75;7395485;19;20010;-56
2023/10/05 11:54:08;;;;;;;0.20;0.20;;;;;;;36.46;36.09;100328.69;7394372;19;20010;-56
2023/10/05 11:56:35;;;;;;;2.25;0.32;;;;;;;39.30;33.58;100338.88;7394487;19;20328;-57
2023/10/05 11:59:01;;;;;;;1.02;0.55;;;;;;;40.41;32.25;100333.56;7393836;19;20018;-57
2023/10/05 12:01:27;;;;;;;2.00;0.32;;;;;;;38.77;33.72;100328.63;7393958;19;20034;-57
2023/10/05 12:03:55;;;;;;;0.50;0.30;;;;;;;40.45;32.24;100319.09;7393839;19;20066;-57
2023/10/05 12:06:28;;;;;;;3.17;0.98;;;;;;;40.28;32.13;100323.63;7393970;19;20010;-57